Time;durP1;ratioP1;P1;durP2;ratioP2;P2;SDS_P1;SDS_P2;PMS_P1;PMS_P2;Temp;Humidity;BMP_temperature;BMP_pressure;BME280_temperature;BME280_humidity;BME280_pressure;Samples;Min_cycle;Max_cycle;Signal;HPM_P1;HPM_P2
2022/06/14 00:01:35;;;;;;;2.08;0.93;;;11.90;99.90;;;;;;5022290;28;20476;-70
2022/06/14 00:04:02;;;;;;;1.83;0.65;;;11.90;99.90;;;;;;5021829;28;20037;-72
2022/06/14 00:06:30;;;;;;;4.10;1.08;;;11.90;99.90;;;;;;5022151;28;20021;-70
2022/06/14 00:08:56;;;;;;;1.80;0.88;;;11.90;99.90;;;;;;5022228;28;20057;-70
2022/06/14 00:11:28;;;;;;;1.60;0.70;;;11.90;99.90;;;;;;5021904;28;20112;-69
2022/06/14 00:13:57;;;;;;;2.22;0.80;;;11.90;99.90;;;;;;5021961;28;20026;-69
2022/06/14 00:16:24;;;;;;;7.03;0.88;;;11.80;99.90;;;;;;5022044;28;20026;-70
2022/06/14 00:18:50;;;;;;;3.95;1.23;;;11.80;99.90;;;;;;5020843;28;20050;-70
2022/06/14 00:21:17;;;;;;;1.13;0.68;;;11.90;99.90;;;;;;5022013;28;20045;-69
2022/06/14 00:23:43;;;;;;;3.92;1.00;;;11.90;99.90;;;;;;5021480;28;20443;-69
2022/06/14 00:26:11;;;;;;;1.33;0.80;;;11.80;99.90;;;;;;5021752;28;20112;-68
2022/06/14 00:28:38;;;;;;;0.93;0.60;;;11.80;99.90;;;;;;5021596;28;20034;-70
2022/06/14 00:31:10;;;;;;;1.52;0.70;;;11.80;99.90;;;;;;5021453;28;20174;-69
2022/06/14 00:33:36;;;;;;;3.70;1.13;;;11.70;99.90;;;;;;5021093;28;20037;-69
2022/06/14 00:36:08;;;;;;;2.72;1.30;;;11.70;99.90;;;;;;5021774;28;20034;-69
2022/06/14 00:38:35;;;;;;;1.20;0.70;;;11.60;99.90;;;;;;5021686;28;20052;-70
2022/06/14 00:41:02;;;;;;;2.35;1.13;;;11.50;99.90;;;;;;5021430;28;20025;-69
2022/06/14 00:43:30;;;;;;;3.13;0.98;;;11.50;99.90;;;;;;5021363;28;20034;-70
2022/06/14 00:46:18;;;;;;;3.53;0.90;;;11.40;99.90;;;;;;5021037;28;20022;-70
2022/06/14 00:48:50;;;;;;;0.73;0.57;;;11.40;99.90;;;;;;5021406;28;20052;-69
2022/06/14 00:51:29;;;;;;;2.47;0.88;;;11.40;99.90;;;;;;5021560;28;20106;-69
2022/06/14 00:54:14;;;;;;;2.72;0.55;;;11.40;99.90;;;;;;5025103;28;20026;-69
2022/06/14 00:56:46;;;;;;;1.65;0.80;;;11.40;99.90;;;;;;5025275;28;20030;-69
2022/06/14 00:59:21;;;;;;;1.65;0.93;;;11.40;99.90;;;;;;5025106;28;20037;-69
2022/06/14 01:01:50;;;;;;;1.58;0.77;;;11.40;99.90;;;;;;5025116;28;20034;-70
2022/06/14 01:04:22;;;;;;;5.65;1.23;;;11.40;99.90;;;;;;5024962;28;20022;-69
2022/06/14 01:06:57;;;;;;;1.30;0.95;;;11.40;99.90;;;;;;5025099;28;20033;-70
2022/06/14 01:10:00;;;;;;;0.90;0.80;;;11.40;99.90;;;;;;5025181;28;20045;-70
2022/06/14 01:12:31;;;;;;;2.47;0.80;;;11.40;99.90;;;;;;5025234;28;20033;-69
2022/06/14 01:15:08;;;;;;;11.15;1.25;;;11.40;99.90;;;;;;5024719;28;20033;-71
2022/06/14 01:17:41;;;;;;;2.03;0.90;;;11.30;99.90;;;;;;5024874;28;20050;-70
2022/06/14 01:20:08;;;;;;;3.10;1.42;;;11.40;99.90;;;;;;5025208;28;20014;-70
2022/06/14 01:22:34;;;;;;;2.33;1.02;;;11.30;99.90;;;;;;5024694;28;20049;-70
2022/06/14 01:25:02;;;;;;;7.68;0.80;;;11.20;99.90;;;;;;5025328;28;20363;-69
2022/06/14 01:27:31;;;;;;;2.53;1.20;;;11.20;99.90;;;;;;5024872;28;20081;-69
2022/06/14 01:30:09;;;;;;;2.33;1.13;;;11.20;99.90;;;;;;5024745;28;20025;-71
2022/06/14 01:32:45;;;;;;;4.10;1.17;;;11.20;99.90;;;;;;5024740;28;20037;-71
2022/06/14 01:35:14;;;;;;;5.03;1.45;;;11.20;99.90;;;;;;5024282;28;20022;-71
2022/06/14 01:37:40;;;;;;;7.47;1.23;;;11.10;99.90;;;;;;5024223;28;20018;-69
2022/06/14 01:40:07;;;;;;;6.05;1.67;;;11.10;99.90;;;;;;5024955;28;20033;-71
2022/06/14 01:43:11;;;;;;;1.95;1.17;;;11.10;99.90;;;;;;5024022;28;20026;-69
2022/06/14 01:45:57;;;;;;;3.07;1.40;;;11.10;99.90;;;;;;5024740;28;20018;-70
2022/06/14 01:48:26;;;;;;;14.35;1.45;;;11.10;99.90;;;;;;5024299;28;20030;-70
2022/06/14 01:54:21;;;;;;;4.00;1.38;;;11.10;99.90;;;;;;5024201;28;20040;-69
2022/06/14 01:57:05;;;;;;;7.95;1.40;;;11.10;99.90;;;;;;5023975;28;20482;-71
2022/06/14 01:59:34;;;;;;;1.13;1.00;;;11.00;99.90;;;;;;5024600;28;20018;-69
2022/06/14 02:02:12;;;;;;;2.92;1.40;;;11.00;99.90;;;;;;5024136;28;20112;-69
2022/06/14 02:05:01;;;;;;;2.60;1.17;;;11.00;99.90;;;;;;5022887;28;20018;-70
2022/06/14 02:07:34;;;;;;;2.05;0.88;;;11.00;99.90;;;;;;5024219;28;20022;-71
2022/06/14 02:10:24;;;;;;;2.40;1.60;;;11.00;99.90;;;;;;5023735;28;20028;-69
2022/06/14 02:13:15;;;;;;;2.53;1.08;;;11.00;99.90;;;;;;5024181;28;20021;-70
2022/06/14 02:16:07;;;;;;;3.33;1.27;;;11.10;99.90;;;;;;5023701;28;20412;-70
2022/06/14 02:18:45;;;;;;;1.38;0.90;;;11.10;99.90;;;;;;5023202;28;20375;-69
2022/06/14 02:21:23;;;;;;;2.40;1.00;;;11.00;99.90;;;;;;5023990;28;20057;-69
2022/06/14 02:24:10;;;;;;;1.88;1.30;;;11.10;99.90;;;;;;5023310;28;20132;-69
2022/06/14 02:26:40;;;;;;;1.17;0.95;;;11.00;99.90;;;;;;5023494;28;20030;-69
2022/06/14 02:29:35;;;;;;;1.95;1.00;;;11.00;99.90;;;;;;5023466;28;20057;-69
2022/06/14 02:32:12;;;;;;;3.95;1.25;;;11.10;99.90;;;;;;5023432;28;20063;-68
2022/06/14 02:34:48;;;;;;;2.08;1.23;;;11.10;99.90;;;;;;5023474;28;20117;-70
2022/06/14 02:37:20;;;;;;;4.22;1.35;;;11.10;99.90;;;;;;5023378;28;20022;-68
2022/06/14 02:39:52;;;;;;;5.20;1.83;;;11.10;99.90;;;;;;5005492;28;20033;-69
2022/06/14 02:42:30;;;;;;;11.77;1.70;;;11.20;99.90;;;;;;5005499;28;20029;-68
2022/06/14 02:45:21;;;;;;;3.67;2.08;;;11.20;99.90;;;;;;5023590;28;20689;-69
2022/06/14 02:48:05;;;;;;;11.00;1.20;;;11.10;99.90;;;;;;5023236;28;20026;-69
2022/06/14 02:50:40;;;;;;;;;;;11.10;99.90;;;;;;5023197;28;20057;-70
2022/06/14 02:53:09;;;;;;;4.30;1.02;;;11.10;99.90;;;;;;5023359;28;19913;-69
2022/06/14 02:55:38;;;;;;;6.50;1.42;;;11.10;99.90;;;;;;5023337;28;20025;-70
2022/06/14 02:58:30;;;;;;;3.22;1.55;;;11.10;99.90;;;;;;5022616;28;20030;-69
2022/06/14 03:01:10;;;;;;;3.88;1.48;;;11.10;99.90;;;;;;5023273;28;20030;-70
2022/06/14 03:03:46;;;;;;;1.30;0.90;;;11.10;99.90;;;;;;5022851;28;20038;-69
2022/06/14 03:06:22;;;;;;;1.98;1.38;;;11.10;99.90;;;;;;5022493;28;20022;-69
2022/06/14 03:08:59;;;;;;;4.38;1.23;;;11.20;99.90;;;;;;5022694;28;20088;-70
2022/06/14 03:11:49;;;;;;;3.58;1.35;;;11.20;99.90;;;;;;5022854;28;20014;-68
2022/06/14 03:14:34;;;;;;;2.80;1.45;;;11.20;99.90;;;;;;5022818;28;21007;-68
2022/06/14 03:17:17;;;;;;;9.30;2.83;;;11.20;99.90;;;;;;5022843;28;20060;-70
2022/06/14 03:20:08;;;;;;;5.13;1.58;;;11.20;99.90;;;;;;5022537;28;20032;-70
2022/06/14 03:22:57;;;;;;;2.90;1.45;;;11.10;99.90;;;;;;5022767;28;20068;-69
2022/06/14 03:25:34;;;;;;;4.53;1.27;;;11.10;99.90;;;;;;5022911;28;20026;-70
2022/06/14 03:28:22;;;;;;;3.38;1.33;;;11.10;99.90;;;;;;5022371;28;20030;-69
2022/06/14 03:31:02;;;;;;;2.55;1.23;;;11.10;99.90;;;;;;5005119;28;20661;-68
2022/06/14 03:33:45;;;;;;;2.75;0.98;;;11.10;99.90;;;;;;5022180;28;20436;-69
2022/06/14 03:36:13;;;;;;;1.50;1.15;;;11.10;99.90;;;;;;5022472;28;20025;-70
2022/06/14 03:38:52;;;;;;;3.42;1.40;;;11.00;99.90;;;;;;5021970;28;20030;-70
2022/06/14 03:41:22;;;;;;;4.13;1.55;;;11.00;99.90;;;;;;5021988;28;20029;-69
2022/06/14 03:43:50;;;;;;;2.30;1.50;;;11.10;99.90;;;;;;5022184;28;20042;-70
2022/06/14 03:46:30;;;;;;;5.15;1.60;;;11.10;99.90;;;;;;5021884;28;20022;-69
2022/06/14 03:49:07;;;;;;;12.82;2.78;;;11.20;99.90;;;;;;5022067;28;20550;-71
2022/06/14 03:51:47;;;;;;;3.90;1.67;;;11.20;99.90;;;;;;5022501;28;20025;-70
2022/06/14 03:54:37;;;;;;;4.38;1.70;;;11.20;99.90;;;;;;5021987;28;20471;-70
2022/06/14 03:57:28;;;;;;;3.00;1.73;;;11.30;99.90;;;;;;5022409;28;20026;-69
2022/06/14 04:00:06;;;;;;;3.55;2.10;;;11.30;99.90;;;;;;5022686;28;20034;-69
2022/06/14 04:02:53;;;;;;;4.07;2.10;;;11.30;99.90;;;;;;5021613;28;20033;-68
2022/06/14 04:05:39;;;;;;;3.67;1.95;;;11.30;99.90;;;;;;5022103;28;20061;-69
2022/06/14 04:08:32;;;;;;;3.80;1.75;;;11.20;99.90;;;;;;5021554;28;20045;-70
2022/06/14 04:11:21;;;;;;;3.28;1.67;;;11.30;99.90;;;;;;5020723;28;20022;-72
2022/06/14 04:13:53;;;;;;;4.38;1.27;;;11.30;99.90;;;;;;5022128;28;20026;-70
2022/06/14 04:16:26;;;;;;;8.80;2.03;;;11.30;99.90;;;;;;5021547;28;20034;-70
2022/06/14 04:19:13;;;;;;;7.37;1.90;;;11.30;99.90;;;;;;5021705;28;20061;-69
2022/06/14 04:21:58;;;;;;;6.85;2.72;;;11.40;99.90;;;;;;5021558;28;20089;-70
2022/06/14 04:24:40;;;;;;;9.35;1.70;;;11.40;99.90;;;;;;5021694;28;20117;-70
2022/06/14 04:27:14;;;;;;;4.15;1.92;;;11.40;99.90;;;;;;5021132;28;20340;-70
2022/06/14 04:29:43;;;;;;;2.25;1.27;;;11.50;99.90;;;;;;5021061;28;20037;-71
2022/06/14 04:32:17;;;;;;;3.80;1.88;;;11.50;99.90;;;;;;5021552;28;20026;-70
2022/06/14 04:35:05;;;;;;;5.07;1.90;;;11.50;99.90;;;;;;5021639;28;20090;-70
2022/06/14 04:37:40;;;;;;;7.22;0.80;;;11.50;99.90;;;;;;5021749;28;20108;-69
2022/06/14 04:40:15;;;;;;;7.38;1.60;;;11.60;99.90;;;;;;5021654;28;20113;-69
2022/06/14 04:42:55;;;;;;;4.50;1.88;;;11.60;99.90;;;;;;5021206;28;20038;-70
2022/06/14 04:45:43;;;;;;;3.70;1.85;;;11.60;99.90;;;;;;5021821;28;20132;-71
2022/06/14 04:48:12;;;;;;;2.42;1.52;;;11.70;99.90;;;;;;5021460;28;20037;-69
2022/06/14 04:50:43;;;;;;;5.63;2.10;;;11.70;99.90;;;;;;5021223;28;20116;-70
2022/06/14 04:53:19;;;;;;;4.32;1.58;;;11.80;99.90;;;;;;5021670;28;20048;-69
2022/06/14 04:55:47;;;;;;;3.88;2.33;;;11.80;99.90;;;;;;5021323;28;20061;-68
2022/06/14 04:58:22;;;;;;;4.85;1.83;;;11.80;99.90;;;;;;5021620;28;20028;-69
2022/06/14 05:01:07;;;;;;;2.53;1.25;;;11.80;99.90;;;;;;5021111;28;20042;-70
2022/06/14 05:04:00;;;;;;;;;;;11.90;99.90;;;;;;5021822;28;20018;-69
2022/06/14 05:06:37;;;;;;;6.63;2.47;;;11.90;99.90;;;;;;5021213;28;19909;-69
2022/06/14 05:09:09;;;;;;;4.53;2.05;;;12.00;99.90;;;;;;5019860;28;20097;-69
2022/06/14 05:11:40;;;;;;;3.88;2.10;;;12.00;99.90;;;;;;5021060;28;20033;-70
2022/06/14 05:14:21;;;;;;;3.38;1.40;;;12.10;99.90;;;;;;5021244;28;20029;-72
2022/06/14 05:17:02;;;;;;;4.50;1.98;;;12.10;99.90;;;;;;5019598;28;20041;-70
2022/06/14 05:19:52;;;;;;;8.15;2.38;;;12.20;99.90;;;;;;5020739;28;20049;-72
2022/06/14 05:22:34;;;;;;;5.43;1.55;;;12.20;99.90;;;;;;5020960;28;20113;-70
2022/06/14 05:25:01;;;;;;;1.20;1.10;;;12.20;99.90;;;;;;5020170;28;20045;-71
2022/06/14 05:27:33;;;;;;;2.00;1.38;;;12.30;99.90;;;;;;5021639;28;20114;-73
2022/06/14 05:30:26;;;;;;;3.42;1.85;;;12.30;99.90;;;;;;5021330;28;20116;-71
2022/06/14 05:32:58;;;;;;;2.22;1.67;;;12.30;99.90;;;;;;5019275;28;20121;-71
2022/06/14 05:35:52;;;;;;;3.97;2.05;;;12.30;99.90;;;;;;5020112;28;20030;-70
2022/06/14 05:38:28;;;;;;;2.55;1.52;;;12.30;99.90;;;;;;5020708;28;20026;-70
2022/06/14 05:41:03;;;;;;;2.58;1.40;;;12.30;99.90;;;;;;5006510;28;20088;-70
2022/06/14 05:43:42;;;;;;;;;;;12.30;99.90;;;;;;5006587;28;20112;-70
2022/06/14 05:46:24;;;;;;;4.30;1.73;;;12.30;99.90;;;;;;5024322;28;19913;-72
2022/06/14 05:48:53;;;;;;;10.80;2.25;;;12.30;99.90;;;;;;5024139;28;20037;-71
2022/06/14 05:51:35;;;;;;;4.82;1.55;;;12.30;99.90;;;;;;5024401;28;20029;-70
2022/06/14 05:54:22;;;;;;;9.25;2.13;;;12.30;99.90;;;;;;5023364;28;20033;-73
2022/06/14 05:56:56;;;;;;;3.08;1.63;;;12.40;99.90;;;;;;5022783;28;20034;-70
2022/06/14 05:59:32;;;;;;;2.30;1.15;;;12.40;99.90;;;;;;5021445;28;20030;-70
2022/06/14 06:02:25;;;;;;;3.47;1.70;;;12.50;99.90;;;;;;5018756;28;20029;-71
2022/06/14 06:05:01;;;;;;;2.85;1.33;;;12.60;99.90;;;;;;4987110;28;20122;-72
2022/06/14 06:07:32;;;;;;;2.53;1.17;;;12.60;99.90;;;;;;5022283;28;20474;-71
2022/06/14 06:10:24;;;;;;;7.78;1.73;;;12.60;99.90;;;;;;5023869;28;20064;-72
2022/06/14 06:13:00;;;;;;;7.03;1.98;;;12.70;99.90;;;;;;5017536;28;20042;-72
2022/06/14 06:15:35;;;;;;;2.30;1.20;;;12.80;99.90;;;;;;5022382;28;20029;-71
2022/06/14 06:18:08;;;;;;;2.03;1.50;;;12.90;99.90;;;;;;5023916;28;20054;-72
2022/06/14 06:20:49;;;;;;;1.90;0.95;;;12.90;99.90;;;;;;5023270;28;20479;-70
2022/06/14 06:23:54;;;;;;;7.80;1.80;;;13.00;99.90;;;;;;5023622;28;20064;-72
2022/06/14 06:26:21;;;;;;;;;;;13.20;99.90;;;;;;5022746;28;20188;-71
2022/06/14 06:28:54;;;;;;;4.70;1.25;;;13.30;99.90;;;;;;5023466;28;20393;-70
2022/06/14 06:31:35;;;;;;;2.38;1.17;;;13.30;99.90;;;;;;5023218;28;20028;-70
2022/06/14 06:34:05;;;;;;;10.35;1.15;;;13.30;99.90;;;;;;5023780;28;20090;-72
2022/06/14 06:36:50;;;;;;;6.90;1.05;;;13.30;99.90;;;;;;5022321;28;20141;-72
2022/06/14 06:39:38;;;;;;;4.28;1.60;;;13.40;99.90;;;;;;5022602;28;20029;-69
2022/06/14 06:42:41;;;;;;;1.50;1.00;;;13.40;99.90;;;;;;5019522;28;20049;-72
2022/06/14 06:45:16;;;;;;;0.95;0.82;;;13.50;99.90;;;;;;5006749;28;20129;-71
2022/06/14 06:48:06;;;;;;;9.38;1.60;;;13.60;99.90;;;;;;5022443;28;20035;-71
2022/06/14 06:50:48;;;;;;;2.83;1.25;;;13.70;99.90;;;;;;5019063;28;20042;-72
2022/06/14 06:53:16;;;;;;;3.13;1.05;;;13.70;99.90;;;;;;5022840;28;20060;-71
2022/06/14 06:55:45;;;;;;;2.47;1.08;;;13.80;99.90;;;;;;5021247;28;20029;-72
2022/06/14 06:58:25;;;;;;;5.13;1.33;;;13.90;99.90;;;;;;5020402;28;20038;-71
2022/06/14 07:00:57;;;;;;;1.48;0.70;;;14.10;99.90;;;;;;5019495;28;20097;-70
2022/06/14 07:03:36;;;;;;;1.45;0.80;;;14.10;99.90;;;;;;5022683;28;20095;-71
2022/06/14 07:06:06;;;;;;;1.95;0.93;;;14.20;99.90;;;;;;5022979;28;20029;-71
2022/06/14 07:08:46;;;;;;;3.78;1.73;;;14.30;99.90;;;;;;5004423;28;20046;-70
2022/06/14 07:11:20;;;;;;;2.33;1.05;;;14.40;99.90;;;;;;5021007;28;20044;-69
2022/06/14 07:13:53;;;;;;;6.63;1.70;;;14.60;99.90;;;;;;5023258;28;20093;-70
2022/06/14 07:16:31;;;;;;;1.60;0.95;;;14.70;99.90;;;;;;5022046;28;20301;-71
2022/06/14 07:19:15;;;;;;;2.45;1.13;;;14.90;99.90;;;;;;5020923;28;20053;-71
2022/06/14 07:21:52;;;;;;;0.75;0.73;;;14.90;99.90;;;;;;5021293;28;20034;-71
2022/06/14 07:24:30;;;;;;;3.95;1.08;;;15.00;99.90;;;;;;5020620;28;20050;-72
2022/06/14 07:27:11;;;;;;;2.63;1.08;;;15.10;99.90;;;;;;5023175;28;20097;-72
2022/06/14 07:29:46;;;;;;;5.80;1.20;;;15.00;99.90;;;;;;5022251;28;20095;-70
2022/06/14 07:32:28;;;;;;;1.50;0.70;;;15.10;99.90;;;;;;5022702;28;20088;-70
2022/06/14 07:34:54;;;;;;;2.25;1.00;;;15.10;99.90;;;;;;5021131;28;20124;-70
2022/06/14 07:37:39;;;;;;;4.50;0.82;;;15.20;99.90;;;;;;5021027;28;20038;-70
2022/06/14 07:40:14;;;;;;;3.30;1.13;;;15.20;99.90;;;;;;5022500;28;20061;-70
2022/06/14 07:43:08;;;;;;;3.67;1.08;;;15.30;99.90;;;;;;5022188;28;20021;-70
2022/06/14 07:45:39;;;;;;;2.93;0.77;;;15.20;99.90;;;;;;5020494;28;20033;-72
2022/06/14 07:48:07;;;;;;;2.58;0.93;;;15.40;99.90;;;;;;5020944;28;20299;-71
2022/06/14 07:50:55;;;;;;;4.63;1.25;;;15.40;99.90;;;;;;5015372;28;20072;-72
2022/06/14 07:53:30;;;;;;;6.88;1.15;;;15.30;99.90;;;;;;5019438;28;20041;-70
2022/06/14 07:56:10;;;;;;;1.20;0.88;;;15.50;99.90;;;;;;5018154;28;20022;-72
2022/06/14 07:59:05;;;;;;;1.50;0.73;;;15.50;99.90;;;;;;5019904;28;20030;-72
2022/06/14 08:01:37;;;;;;;2.63;0.80;;;15.50;99.90;;;;;;5002966;28;20026;-72
2022/06/14 08:04:17;;;;;;;3.28;1.05;;;15.50;99.90;;;;;;5020802;28;20026;-70
2022/06/14 08:06:58;;;;;;;2.90;0.80;;;15.50;99.90;;;;;;5021447;28;20022;-71
2022/06/14 08:09:49;;;;;;;2.17;0.95;;;15.50;99.90;;;;;;5021784;28;20455;-71
2022/06/14 08:12:58;;;;;;;1.98;1.20;;;15.50;99.90;;;;;;5020973;28;20030;-70
2022/06/14 08:15:27;;;;;;;2.70;1.25;;;15.50;99.90;;;;;;4941631;29;20083;-70
2022/06/14 08:17:59;;;;;;;1.83;0.68;;;15.50;99.90;;;;;;4941515;29;20063;-71
2022/06/14 08:20:42;;;;;;;3.45;1.27;;;15.60;99.90;;;;;;4974600;28;20034;-72
2022/06/14 08:23:17;;;;;;;3.55;1.65;;;15.80;99.90;;;;;;5000608;28;20027;-72
2022/06/14 08:25:48;;;;;;;6.40;1.05;;;16.00;99.90;;;;;;4998150;28;21650;-71
2022/06/14 08:28:24;;;;;;;1.52;0.70;;;16.10;99.90;;;;;;5001946;28;20026;-71
2022/06/14 08:31:17;;;;;;;8.18;1.08;;;16.20;99.90;;;;;;5001017;28;20023;-72
2022/06/14 08:34:11;;;;;;;0.90;0.75;;;16.40;99.90;;;;;;4999970;28;20041;-72
2022/06/14 08:37:00;;;;;;;2.35;1.05;;;16.70;99.90;;;;;;4998472;28;20102;-72
2022/06/14 08:39:35;;;;;;;4.20;0.93;;;16.70;99.90;;;;;;4999846;28;20041;-73
2022/06/14 08:42:14;;;;;;;1.08;0.80;;;16.60;99.90;;;;;;4999707;28;20125;-72
2022/06/14 08:45:06;;;;;;;0.38;0.35;;;16.40;99.90;;;;;;5001345;28;20475;-70
2022/06/14 08:48:10;;;;;;;3.65;0.75;;;16.30;99.90;;;;;;5001397;28;20029;-70
2022/06/14 08:50:56;;;;;;;1.60;0.70;;;16.10;99.90;;;;;;4978619;28;20517;-76
2022/06/14 08:53:37;;;;;;;0.40;0.40;;;16.00;99.90;;;;;;5000688;28;20035;-71
2022/06/14 08:56:22;;;;;;;1.33;0.70;;;16.00;99.90;;;;;;4999151;28;20042;-72
2022/06/14 08:59:19;;;;;;;1.02;0.60;;;16.00;99.90;;;;;;4997095;28;20066;-72
2022/06/14 09:02:25;;;;;;;1.70;0.93;;;16.00;99.90;;;;;;5000115;28;20503;-71
2022/06/14 09:05:19;;;;;;;1.27;0.68;;;16.10;99.90;;;;;;5000162;28;20308;-72
2022/06/14 09:08:17;;;;;;;1.88;0.70;;;16.30;99.90;;;;;;4974204;28;20026;-71
2022/06/14 09:10:46;;;;;;;5.20;1.10;;;16.50;99.90;;;;;;5000469;28;20145;-71
2022/06/14 09:13:27;;;;;;;4.22;0.98;;;16.70;99.90;;;;;;5003004;28;20041;-71
2022/06/14 09:16:30;;;;;;;0.90;0.55;;;16.80;99.90;;;;;;5005610;28;20085;-69
2022/06/14 09:19:19;;;;;;;0.80;0.60;;;16.80;99.90;;;;;;5023580;28;20056;-71
2022/06/14 09:22:11;;;;;;;2.53;0.90;;;16.70;99.90;;;;;;5022326;28;20105;-72
2022/06/14 09:24:58;;;;;;;7.68;1.08;;;16.70;99.90;;;;;;5023820;28;20038;-71
2022/06/14 09:27:53;;;;;;;1.40;0.90;;;16.70;99.90;;;;;;5024865;28;20719;-71
2022/06/14 09:30:45;;;;;;;1.80;0.80;;;16.60;99.90;;;;;;5022596;28;20054;-71
2022/06/14 09:33:26;;;;;;;1.15;0.43;;;16.80;99.90;;;;;;5024456;28;20026;-72
2022/06/14 09:35:54;;;;;;;2.13;0.68;;;17.00;99.90;;;;;;5007054;28;20237;-69
2022/06/14 09:38:57;;;;;;;0.43;0.30;;;17.10;99.90;;;;;;5023834;28;20414;-75
2022/06/14 09:41:32;;;;;;;5.03;1.52;;;17.20;99.90;;;;;;5006333;28;20026;-73
2022/06/14 09:44:19;;;;;;;0.50;0.40;;;17.40;99.90;;;;;;5024192;28;20038;-72
2022/06/14 09:47:07;;;;;;;3.17;0.80;;;17.60;99.90;;;;;;5023348;28;20044;-71
2022/06/14 09:49:55;;;;;;;4.97;0.85;;;17.80;99.90;;;;;;5023014;28;20057;-73
2022/06/14 09:52:21;;;;;;;2.42;0.93;;;18.00;99.90;;;;;;5023730;28;20026;-73
2022/06/14 09:55:24;;;;;;;0.75;0.65;;;18.10;99.90;;;;;;5024741;28;20421;-73
2022/06/14 09:58:00;;;;;;;1.27;0.50;;;18.40;99.90;;;;;;5023785;28;20040;-71
2022/06/14 10:00:36;;;;;;;1.10;0.70;;;18.30;99.90;;;;;;5024359;28;20026;-71
2022/06/14 10:03:23;;;;;;;0.47;0.40;;;18.10;99.90;;;;;;5024508;28;20030;-73
2022/06/14 10:06:10;;;;;;;1.67;0.60;;;17.90;99.90;;;;;;5023541;28;20049;-71
2022/06/14 10:09:04;;;;;;;1.15;0.70;;;17.80;99.90;;;;;;5022410;28;20037;-72
2022/06/14 10:11:54;;;;;;;2.17;1.10;;;17.80;99.90;;;;;;5021645;28;20117;-73
2022/06/14 10:14:20;;;;;;;2.10;0.80;;;17.80;99.90;;;;;;5022861;28;21386;-71
2022/06/14 10:16:57;;;;;;;2.92;0.60;;;17.60;99.90;;;;;;5023075;28;20036;-73
2022/06/14 10:19:44;;;;;;;0.57;0.52;;;17.60;99.90;;;;;;5023473;28;20037;-71
2022/06/14 10:22:31;;;;;;;0.88;0.70;;;17.80;99.90;;;;;;5023231;28;20473;-72
2022/06/14 10:25:15;;;;;;;0.57;0.35;;;18.10;99.90;;;;;;5022907;28;20026;-73
2022/06/14 10:28:13;;;;;;;1.02;0.52;;;18.40;99.90;;;;;;5005918;28;20125;-71
2022/06/14 10:31:05;;;;;;;1.10;0.65;;;18.70;99.90;;;;;;5023525;28;20034;-72
2022/06/14 10:33:48;;;;;;;0.52;0.38;;;18.90;99.90;;;;;;5016451;28;20113;-72
2022/06/14 10:36:37;;;;;;;4.05;0.55;;;19.10;99.90;;;;;;5018849;28;20041;-74
2022/06/14 10:39:18;;;;;;;4.15;0.88;;;19.30;99.90;;;;;;5005681;28;20037;-72
2022/06/14 10:42:13;;;;;;;6.68;1.05;;;19.40;99.90;;;;;;5022228;28;20028;-71
2022/06/14 10:45:07;;;;;;;0.50;0.40;;;19.30;99.90;;;;;;5005401;28;20481;-69
2022/06/14 10:47:32;;;;;;;1.08;0.38;;;19.20;99.90;;;;;;5005511;28;20422;-73
2022/06/14 10:50:10;;;;;;;1.30;0.70;;;19.10;99.90;;;;;;5023459;28;20470;-73
2022/06/14 10:53:07;;;;;;;1.27;0.90;;;19.10;99.90;;;;;;5021843;28;20093;-71
2022/06/14 10:56:09;;;;;;;1.00;0.45;;;19.30;99.90;;;;;;4952854;28;20044;-71
2022/06/14 10:58:52;;;;;;;1.13;0.60;;;19.30;99.90;;;;;;5021608;28;20084;-71
2022/06/14 11:01:30;;;;;;;3.83;0.68;;;19.40;99.90;;;;;;5022512;28;20025;-71
2022/06/14 11:04:08;;;;;;;6.55;0.60;;;19.70;99.90;;;;;;5022794;28;20034;-73
2022/06/14 11:06:49;;;;;;;1.60;0.75;;;19.90;99.90;;;;;;5022202;28;20018;-70
2022/06/14 11:09:48;;;;;;;1.13;0.40;;;20.00;99.90;;;;;;5021003;28;20033;-72
2022/06/14 11:12:16;;;;;;;2.88;0.80;;;20.20;99.90;;;;;;5017369;28;20081;-72
2022/06/14 11:14:50;;;;;;;0.40;0.40;;;20.40;99.90;;;;;;5021132;28;20061;-70
2022/06/14 11:17:28;;;;;;;1.08;0.57;;;20.50;99.90;;;;;;5021468;28;20105;-71
2022/06/14 11:20:06;;;;;;;1.42;0.70;;;20.40;99.90;;;;;;5021963;28;20029;-72
2022/06/14 11:23:04;;;;;;;0.63;0.40;;;20.10;99.90;;;;;;5004524;28;20045;-73
2022/06/14 11:25:44;;;;;;;2.80;0.60;;;19.80;99.90;;;;;;5022250;28;20382;-73
2022/06/14 11:28:29;;;;;;;2.08;0.85;;;19.60;99.90;;;;;;5019184;28;20088;-73
2022/06/14 11:31:23;;;;;;;2.65;0.63;;;19.80;99.90;;;;;;5021992;28;20030;-73
2022/06/14 11:33:58;;;;;;;;;;;20.10;99.90;;;;;;5021143;28;20093;-72
2022/06/14 11:36:43;;;;;;;7.88;0.57;;;20.30;99.90;;;;;;5020520;28;19988;-73
2022/06/14 11:39:22;;;;;;;1.17;0.65;;;20.40;99.90;;;;;;5022468;28;20089;-74
2022/06/14 11:41:50;;;;;;;0.20;0.15;;;20.30;99.90;;;;;;5021407;28;20018;-72
2022/06/14 11:44:45;;;;;;;2.40;0.43;;;20.40;99.90;;;;;;5022171;28;20045;-73
2022/06/14 11:47:17;;;;;;;0.40;0.28;;;20.50;99.90;;;;;;5022542;28;20026;-71
2022/06/14 11:50:22;;;;;;;0.30;0.30;;;20.70;99.90;;;;;;5020105;28;20033;-71
2022/06/14 11:53:17;;;;;;;1.10;0.27;;;20.80;99.90;;;;;;5022138;28;20060;-71
2022/06/14 11:55:53;;;;;;;0.82;0.43;;;20.70;99.90;;;;;;5021766;28;20033;-73
2022/06/14 11:58:47;;;;;;;0.45;0.30;;;20.70;99.90;;;;;;5020063;28;20101;-74
2022/06/14 12:01:38;;;;;;;0.55;0.43;;;20.80;99.90;;;;;;5019472;28;20026;-72
2022/06/14 12:04:23;;;;;;;1.50;0.30;;;21.20;99.90;;;;;;5019602;28;20044;-70
2022/06/14 12:07:09;;;;;;;0.75;0.47;;;21.60;99.90;;;;;;5019989;28;20018;-72
2022/06/14 12:09:43;;;;;;;0.90;0.35;;;21.90;99.90;;;;;;5021792;28;20030;-71
2022/06/14 12:12:27;;;;;;;2.03;0.45;;;22.00;99.90;;;;;;5003713;28;20022;-72
2022/06/14 12:14:56;;;;;;;0.38;0.35;;;22.00;99.90;;;;;;5021501;28;20072;-73
2022/06/14 12:17:33;;;;;;;12.85;0.50;;;22.00;99.90;;;;;;5002948;28;20060;-72
2022/06/14 12:20:10;;;;;;;0.17;0.10;;;21.90;99.90;;;;;;5021476;28;20054;-73
2022/06/14 12:22:56;;;;;;;0.47;0.30;;;21.80;99.90;;;;;;5002588;28;20026;-74
2022/06/14 12:28:35;;;;;;;1.05;0.47;;;22.30;99.90;;;;;;5021869;28;20075;-73
2022/06/14 12:31:18;;;;;;;1.23;0.45;;;22.70;99.90;;;;;;5021756;28;20107;-70
2022/06/14 12:33:50;;;;;;;0.43;0.40;;;22.90;99.90;;;;;;5012362;28;20036;-73
2022/06/14 12:36:49;;;;;;;0.60;0.35;;;23.10;99.90;;;;;;5003533;28;20034;-73
2022/06/14 12:39:27;;;;;;;0.47;0.30;;;23.00;99.90;;;;;;5021269;28;20017;-70
2022/06/14 12:42:17;;;;;;;0.93;0.43;;;22.50;99.90;;;;;;5021858;28;20132;-74
2022/06/14 12:45:22;;;;;;;0.20;0.20;;;22.10;99.90;;;;;;5020476;28;20026;-70
2022/06/14 12:48:12;;;;;;;0.47;0.28;;;21.90;99.90;;;;;;5011549;28;20057;-74
2022/06/14 12:50:46;;;;;;;0.70;0.25;;;21.70;99.90;;;;;;5024767;28;20033;-72
2022/06/14 12:53:31;;;;;;;3.10;0.27;;;21.50;99.90;;;;;;5025265;28;20030;-72
2022/06/14 12:56:02;;;;;;;1.17;0.60;;;21.40;99.90;;;;;;5017242;28;20037;-73
2022/06/14 12:58:50;;;;;;;3.13;0.63;;;21.30;99.90;;;;;;5021517;28;20050;-73
2022/06/14 13:01:42;;;;;;;0.55;0.40;;;21.10;99.90;;;;;;5005094;28;20030;-73
2022/06/14 13:04:37;;;;;;;2.95;0.43;;;21.10;99.90;;;;;;5023325;28;20053;-73
2022/06/14 13:07:22;;;;;;;0.68;0.38;;;21.10;99.90;;;;;;5022883;28;20105;-74
2022/06/14 13:09:53;;;;;;;;;;;21.10;99.90;;;;;;5025242;28;20041;-71
2022/06/14 13:12:37;;;;;;;1.08;0.45;;;21.00;99.90;;;;;;5024798;28;19977;-70
2022/06/14 13:15:11;;;;;;;;;;;20.90;99.90;;;;;;5025171;28;20030;-73
2022/06/14 13:17:58;;;;;;;3.35;0.90;;;20.90;99.90;;;;;;5024464;28;19951;-73
2022/06/14 13:21:11;;;;;;;0.50;0.22;;;21.00;99.90;;;;;;5024157;28;20085;-72
2022/06/14 13:23:49;;;;;;;1.77;0.60;;;21.20;99.90;;;;;;4997686;28;20426;-73
2022/06/14 13:26:15;;;;;;;0.30;0.25;;;21.30;99.90;;;;;;5024417;28;20033;-73
2022/06/14 13:29:01;;;;;;;2.72;0.63;;;21.20;99.90;;;;;;5024704;28;20045;-71
2022/06/14 13:31:38;;;;;;;0.60;0.40;;;21.10;99.90;;;;;;5025376;28;20102;-74
2022/06/14 13:34:32;;;;;;;0.73;0.30;;;21.10;99.90;;;;;;5024555;28;20022;-73
2022/06/14 13:37:35;;;;;;;1.73;0.38;;;21.00;99.90;;;;;;5024906;28;20033;-74
2022/06/14 13:40:22;;;;;;;1.45;0.32;;;21.00;99.90;;;;;;4975198;28;20147;-72
2022/06/14 13:42:56;;;;;;;1.85;0.50;;;20.90;99.90;;;;;;5023872;28;20029;-73
2022/06/14 13:45:39;;;;;;;0.35;0.30;;;20.90;99.90;;;;;;5020348;28;20038;-72
2022/06/14 13:48:16;;;;;;;4.35;0.77;;;20.80;99.90;;;;;;5023108;28;20018;-72
2022/06/14 13:50:51;;;;;;;1.10;0.45;;;20.90;99.90;;;;;;5022874;28;20065;-71
2022/06/14 13:53:31;;;;;;;1.25;0.57;;;21.00;99.90;;;;;;5023357;28;20022;-72
2022/06/14 13:56:22;;;;;;;1.35;0.77;;;21.10;99.90;;;;;;5024426;28;20064;-73
2022/06/14 13:58:57;;;;;;;1.38;0.55;;;21.10;99.90;;;;;;5005954;28;20040;-73
2022/06/14 14:01:34;;;;;;;1.42;0.50;;;21.00;99.90;;;;;;5004992;28;20054;-72
2022/06/14 14:04:38;;;;;;;2.08;0.77;;;20.90;99.90;;;;;;5023372;28;20045;-73